Terminal Aerodrome Forecast
Issued by NWS

Home | Current Version | Previous Version | Text Only | Print | Product List | Glossary On
Versions: 1 2 3 4 5 6 7 8 9 10 11 12 13
000
FTUS45 KTFX 291120
TAFHLN
TAF
KHLN 291120Z 2912/3012 VRB06KT P6SM SKC
     FM291800 29010G17KT P6SM SCT100
     FM300200 28006KT P6SM SKC=

USA.gov is the U.S. government's official web portal to all federal, state and local government web resources and services.